sim
Sign-in with your pilot id or email,
or register
Callsign
Passwort

Schedule Details

Flight Number: EWG7526 (1)
Departure: Hamburg Airport (EDDH) at 10:15
Arrival: Fuerteventura Airport (GCFV) at 15:20
Route: Eurowings Passenger Schedule. Enter filed route here before submitting Pirep.

Weather Information
Getting current METAR information for EDDH 182020Z 06010KT CAVOK 10/05 Q1031 NOSIG
Getting current METAR information for GCFV 182000Z 36016KT 9999 FEW045 18/11 Q1019

Schedule Frequency

Route Map